Time;durP1;ratioP1;P1;durP2;ratioP2;P2;SDS_P1;SDS_P2;PMS_P1;PMS_P2;Temp;Humidity;BMP_temperature;BMP_pressure;BME280_temperature;BME280_humidity;BME280_pressure;Samples;Min_cycle;Max_cycle;Signal;HPM_P1;HPM_P2
2023/08/08 00:02:21;;;;;;;4.45;2.63;;;13.90;99.90;;;;;;5034609;28;20181;-82
2023/08/08 00:04:49;;;;;;;4.05;2.20;;;13.90;99.90;;;;;;5036074;28;20212;-83
2023/08/08 00:07:15;;;;;;;3.58;2.28;;;13.90;99.90;;;;;;5034571;28;20533;-84
2023/08/08 00:09:41;;;;;;;3.58;2.40;;;13.90;99.90;;;;;;5034538;28;20189;-83
2023/08/08 00:12:07;;;;;;;3.03;2.20;;;14.00;99.90;;;;;;5034698;28;20203;-83
2023/08/08 00:14:32;;;;;;;4.20;2.40;;;14.00;99.90;;;;;;5035623;28;20191;-83
2023/08/08 00:16:58;;;;;;;3.38;2.50;;;13.90;99.90;;;;;;5018055;28;20189;-83
2023/08/08 00:19:23;;;;;;;3.28;2.38;;;13.90;99.90;;;;;;5034265;28;20267;-83
2023/08/08 00:21:49;;;;;;;2.45;2.20;;;13.90;99.90;;;;;;5035914;28;20181;-83
2023/08/08 00:24:15;;;;;;;3.85;2.63;;;14.00;99.90;;;;;;5035349;28;20185;-83
2023/08/08 00:26:40;;;;;;;5.90;2.30;;;13.90;99.90;;;;;;5034326;28;20218;-83
2023/08/08 00:29:06;;;;;;;9.75;3.00;;;13.90;99.90;;;;;;5034509;28;20208;-83
2023/08/08 00:31:32;;;;;;;4.82;2.53;;;13.90;99.90;;;;;;5034028;28;20230;-82
2023/08/08 00:33:57;;;;;;;5.30;2.67;;;13.80;99.90;;;;;;5035198;28;20180;-83
2023/08/08 00:36:23;;;;;;;3.60;2.50;;;13.80;99.90;;;;;;5050608;28;20227;-83
2023/08/08 00:38:49;;;;;;;3.30;2.20;;;13.80;99.90;;;;;;5050792;28;20276;-83
2023/08/08 00:41:15;;;;;;;4.50;2.50;;;13.80;99.90;;;;;;5034225;28;20633;-83
2023/08/08 00:43:40;;;;;;;5.00;2.33;;;13.80;99.90;;;;;;5050429;28;20543;-83
2023/08/08 00:46:06;;;;;;;5.35;2.38;;;13.80;99.90;;;;;;5035306;28;20244;-83
2023/08/08 00:48:32;;;;;;;3.30;2.20;;;13.80;99.90;;;;;;5033760;28;20622;-83
2023/08/08 00:50:59;;;;;;;5.15;2.35;;;13.80;99.90;;;;;;5050484;28;20195;-82
2023/08/08 00:53:26;;;;;;;4.03;2.55;;;13.80;99.90;;;;;;5033678;28;20176;-83
2023/08/08 00:55:53;;;;;;;4.57;2.20;;;13.80;99.90;;;;;;5035048;28;20195;-83
2023/08/08 00:58:19;;;;;;;2.67;2.42;;;13.80;99.90;;;;;;5033876;28;20740;-83
2023/08/08 01:00:45;;;;;;;4.40;2.50;;;13.80;99.90;;;;;;5033350;28;20255;-83
2023/08/08 01:03:10;;;;;;;5.07;2.65;;;13.80;99.90;;;;;;5033724;28;20661;-83
2023/08/08 01:05:44;;;;;;;3.75;2.42;;;13.70;99.90;;;;;;5033441;28;20243;-83
2023/08/08 01:08:14;;;;;;;3.83;2.38;;;13.80;99.90;;;;;;5034938;28;20176;-83
2023/08/08 01:10:42;;;;;;;6.95;2.42;;;13.80;99.90;;;;;;5034805;28;20157;-83
2023/08/08 01:13:21;;;;;;;6.20;2.10;;;13.70;99.90;;;;;;5033667;28;20172;-83
2023/08/08 01:15:49;;;;;;;3.63;2.53;;;13.70;99.90;;;;;;5034565;28;20176;-83
2023/08/08 01:18:15;;;;;;;2.97;2.13;;;13.70;99.90;;;;;;5033417;28;20529;-83
2023/08/08 01:20:45;;;;;;;3.88;2.72;;;13.80;99.90;;;;;;5034354;28;20181;-83
2023/08/08 01:23:33;;;;;;;2.58;2.22;;;13.70;99.90;;;;;;5033268;28;20200;-83
2023/08/08 01:26:00;;;;;;;4.72;2.17;;;13.70;99.90;;;;;;5033359;28;20673;-84
2023/08/08 01:28:26;;;;;;;5.55;2.38;;;13.70;99.90;;;;;;5032926;28;20187;-84
2023/08/08 01:30:53;;;;;;;2.55;2.35;;;13.70;99.90;;;;;;5033099;28;20187;-83
2023/08/08 01:33:19;;;;;;;3.90;2.67;;;13.70;99.90;;;;;;5033429;28;20180;-83
2023/08/08 01:35:50;;;;;;;4.28;2.70;;;13.70;99.90;;;;;;5032981;28;20649;-82
2023/08/08 01:38:36;;;;;;;4.50;2.33;;;13.70;99.90;;;;;;5033352;28;20192;-83
2023/08/08 01:41:04;;;;;;;2.83;2.40;;;13.70;99.90;;;;;;5034455;28;20247;-83
2023/08/08 01:43:30;;;;;;;4.40;2.55;;;13.60;99.90;;;;;;5033964;28;20202;-84
2023/08/08 01:45:57;;;;;;;6.47;2.33;;;13.60;99.90;;;;;;5034193;28;20236;-83
2023/08/08 01:48:22;;;;;;;4.47;2.30;;;13.60;99.90;;;;;;5033020;28;20264;-83
2023/08/08 01:50:48;;;;;;;3.40;2.33;;;13.60;99.90;;;;;;5048957;28;20272;-83
2023/08/08 01:53:14;;;;;;;4.50;2.58;;;;;;;;;;5032588;28;20265;-83
2023/08/08 01:55:40;;;;;;;2.92;2.45;;;13.60;99.90;;;;;;5033299;28;20180;-83
2023/08/08 01:58:06;;;;;;;3.42;2.63;;;13.60;99.90;;;;;;5032543;28;20226;-83
2023/08/08 02:00:31;;;;;;;3.22;2.17;;;13.60;99.90;;;;;;5015899;28;20188;-84
2023/08/08 02:02:58;;;;;;;5.45;2.42;;;13.60;99.90;;;;;;5049269;28;20271;-84
2023/08/08 02:05:24;;;;;;;4.30;2.45;;;13.60;99.90;;;;;;5032529;28;20204;-83
2023/08/08 02:07:49;;;;;;;2.50;2.30;;;13.70;99.90;;;;;;5033544;28;20238;-82
2023/08/08 02:10:15;;;;;;;2.88;1.95;;;13.60;99.90;;;;;;5032561;28;20548;-83
2023/08/08 02:12:41;;;;;;;4.70;2.38;;;13.70;99.90;;;;;;5032164;28;20180;-83
2023/08/08 02:15:07;;;;;;;2.08;1.88;;;13.60;99.90;;;;;;5032194;28;20196;-83
2023/08/08 02:17:32;;;;;;;2.58;2.00;;;13.60;99.90;;;;;;5032364;28;20629;-83
2023/08/08 02:19:58;;;;;;;2.75;2.03;;;13.70;99.90;;;;;;5033579;28;20184;-82
2023/08/08 02:22:25;;;;;;;3.33;2.17;;;13.70;99.90;;;;;;5032366;28;20318;-83
2023/08/08 02:24:50;;;;;;;6.82;2.33;;;13.70;99.90;;;;;;5033246;28;20204;-83
2023/08/08 02:27:16;;;;;;;3.28;2.30;;;13.70;99.90;;;;;;5015709;28;20199;-83
2023/08/08 02:29:42;;;;;;;3.83;2.38;;;13.70;99.90;;;;;;5033296;28;20184;-83
2023/08/08 02:32:07;;;;;;;2.20;1.50;;;13.80;99.90;;;;;;5031976;28;20203;-83
2023/08/08 02:34:33;;;;;;;5.30;2.20;;;13.80;99.90;;;;;;5033425;28;20583;-83
2023/08/08 02:36:58;;;;;;;5.00;2.33;;;13.80;99.90;;;;;;5033366;28;20173;-84
2023/08/08 02:39:24;;;;;;;2.22;2.00;;;13.80;99.90;;;;;;5033363;28;20239;-83
2023/08/08 02:41:50;;;;;;;7.20;2.72;;;13.80;99.90;;;;;;5033085;28;20206;-83
2023/08/08 02:44:15;;;;;;;3.38;2.10;;;13.80;99.90;;;;;;5032155;28;20177;-84
2023/08/08 02:46:41;;;;;;;3.15;1.90;;;13.80;99.90;;;;;;5015178;28;20242;-83
2023/08/08 02:49:07;;;;;;;5.32;1.95;;;13.80;99.90;;;;;;5048582;28;20275;-84
2023/08/08 02:51:32;;;;;;;4.22;2.17;;;13.70;99.90;;;;;;5031956;28;20193;-84
2023/08/08 02:53:58;;;;;;;4.97;2.22;;;13.70;99.90;;;;;;5031952;28;20181;-84
2023/08/08 02:56:23;;;;;;;8.35;2.42;;;13.70;99.90;;;;;;5031771;28;20188;-84
2023/08/08 02:58:49;;;;;;;1.92;1.67;;;13.70;99.90;;;;;;5015309;28;20188;-84
2023/08/08 03:01:15;;;;;;;7.07;2.10;;;13.70;99.90;;;;;;5033365;28;20237;-84
2023/08/08 03:03:41;;;;;;;2.42;1.92;;;13.70;99.90;;;;;;5031892;28;20192;-84
2023/08/08 03:06:07;;;;;;;4.20;1.67;;;13.70;99.90;;;;;;5032457;28;20205;-84
2023/08/08 03:08:33;;;;;;;3.17;2.20;;;13.70;99.90;;;;;;5037378;28;20180;-83
2023/08/08 03:10:59;;;;;;;4.55;1.90;;;13.70;99.90;;;;;;5036789;28;20549;-84
2023/08/08 03:13:24;;;;;;;9.60;1.98;;;13.70;99.90;;;;;;5019043;28;20180;-83
2023/08/08 03:15:50;;;;;;;4.40;1.80;;;13.60;99.90;;;;;;5035531;28;20250;-83
2023/08/08 03:18:15;;;;;;;3.15;1.98;;;13.60;99.90;;;;;;5035638;28;20212;-83
2023/08/08 03:20:41;;;;;;;1.75;1.23;;;13.60;99.90;;;;;;5035546;28;20263;-83
2023/08/08 03:23:07;;;;;;;3.00;1.55;;;13.60;99.90;;;;;;5035383;28;20600;-83
2023/08/08 03:25:32;;;;;;;3.00;1.63;;;13.60;99.90;;;;;;5035591;28;20262;-82
2023/08/08 03:27:58;;;;;;;4.38;2.30;;;13.60;99.90;;;;;;5035374;28;20180;-82
2023/08/08 03:30:24;;;;;;;1.77;1.50;;;13.60;99.90;;;;;;5036421;28;20280;-82
2023/08/08 03:32:49;;;;;;;2.08;1.60;;;13.60;99.90;;;;;;5020894;28;20196;-84
2023/08/08 03:35:15;;;;;;;6.20;1.85;;;13.60;99.90;;;;;;5014113;28;20582;-83
2023/08/08 03:37:42;;;;;;;2.22;1.48;;;13.60;99.90;;;;;;5017507;28;20680;-84
2023/08/08 03:40:08;;;;;;;6.65;2.00;;;13.60;99.90;;;;;;5037669;28;20188;-85
2023/08/08 03:42:34;;;;;;;1.98;1.55;;;13.70;99.90;;;;;;5015590;28;20213;-86
2023/08/08 03:45:00;;;;;;;4.88;1.80;;;13.60;99.90;;;;;;5029295;28;20763;-86
2023/08/08 03:47:26;;;;;;;1.58;1.30;;;13.70;99.90;;;;;;5017868;28;20541;-84
2023/08/08 03:49:55;;;;;;;2.22;1.70;;;13.70;99.90;;;;;;5033781;28;20191;-85
2023/08/08 03:52:21;;;;;;;4.88;1.70;;;13.60;99.90;;;;;;5034167;28;20185;-85
2023/08/08 03:54:46;;;;;;;3.72;1.88;;;13.60;99.90;;;;;;5033462;28;20188;-86
2023/08/08 03:57:13;;;;;;;1.60;1.50;;;;;;;;;;5036663;28;20653;-86
2023/08/08 03:59:39;;;;;;;4.88;1.55;;;13.90;99.90;;;;;;5033038;28;20193;-86
2023/08/08 04:02:04;;;;;;;1.75;1.48;;;13.60;99.90;;;;;;4992758;28;20208;-88
2023/08/08 04:04:30;;;;;;;1.85;1.40;;;13.70;99.90;;;;;;5042197;28;20224;-87
2023/08/08 04:06:56;;;;;;;4.85;1.80;;;13.70;99.90;;;;;;5006195;28;20185;-86
2023/08/08 04:09:22;;;;;;;5.05;1.80;;;13.70;99.90;;;;;;5028726;28;20227;-86
2023/08/08 04:11:48;;;;;;;4.95;1.95;;;13.70;99.90;;;;;;5006178;28;20216;-88
2023/08/08 04:14:14;;;;;;;4.35;1.58;;;;;;;;;;5034021;28;20220;-87
2023/08/08 04:16:40;;;;;;;2.92;1.55;;;13.80;99.90;;;;;;5014094;28;20543;-87
2023/08/08 04:19:05;;;;;;;2.22;1.50;;;14.20;99.90;;;;;;5016399;28;20185;-87
2023/08/08 04:21:34;;;;;;;1.42;1.25;;;13.90;99.90;;;;;;5039359;28;20191;-87
2023/08/08 04:24:00;;;;;;;2.58;1.30;;;;;;;;;;5017249;28;20192;-90
2023/08/08 04:26:26;;;;;;;3.30;1.25;;;13.90;99.90;;;;;;5033884;28;20212;-88
2023/08/08 04:28:52;;;;;;;1.20;1.10;;;14.30;99.90;;;;;;5017218;28;20288;-88
2023/08/08 04:31:17;;;;;;;5.65;1.63;;;14.00;99.90;;;;;;5032904;28;20267;-88
2023/08/08 04:33:44;;;;;;;6.38;1.40;;;;;;;;;;5049580;28;20548;-88
2023/08/08 04:36:09;;;;;;;3.15;1.35;;;14.20;99.90;;;;;;5030017;28;20185;-88
2023/08/08 04:38:35;;;;;;;2.08;1.58;;;14.20;99.90;;;;;;5033971;28;20267;-88
2023/08/08 04:41:01;;;;;;;2.75;1.67;;;14.20;99.90;;;;;;5034332;28;20221;-85
2023/08/08 04:43:29;;;;;;;2.45;1.73;;;;;;;;;;5033056;28;20196;-90
2023/08/08 04:45:55;;;;;;;2.17;1.70;;;14.40;99.90;;;;;;5017799;28;20314;-86
2023/08/08 04:48:20;;;;;;;3.15;1.30;;;14.40;99.90;;;;;;5027597;28;20666;-86
2023/08/08 04:50:47;;;;;;;3.00;1.40;;;14.50;99.90;;;;;;5032920;28;20199;-85
2023/08/08 04:53:12;;;;;;;1.95;1.50;;;14.50;99.90;;;;;;5013062;28;20776;-86
2023/08/08 04:55:39;;;;;;;3.35;1.20;;;14.60;99.90;;;;;;5034223;28;20268;-86
2023/08/08 04:58:05;;;;;;;6.63;1.33;;;14.70;99.90;;;;;;5044357;28;20185;-86
2023/08/08 05:00:31;;;;;;;4.38;1.52;;;;;;;;;;5013723;28;20660;-85
2023/08/08 05:02:56;;;;;;;2.40;1.20;;;14.80;99.90;;;;;;5028178;28;20189;-86
2023/08/08 05:05:22;;;;;;;4.93;1.65;;;;;;;;;;5016168;28;20239;-88
2023/08/08 05:07:48;;;;;;;3.78;1.30;;;15.00;99.90;;;;;;5034157;28;20653;-86
2023/08/08 05:10:14;;;;;;;1.30;1.10;;;15.00;99.90;;;;;;5017176;28;20177;-86
2023/08/08 05:12:39;;;;;;;1.25;1.10;;;15.10;99.90;;;;;;5033668;28;20177;-85
2023/08/08 05:15:05;;;;;;;2.10;1.85;;;15.00;99.90;;;;;;5034554;28;20247;-86
2023/08/08 05:17:32;;;;;;;4.30;1.05;;;14.90;99.90;;;;;;5034748;28;20181;-87
2023/08/08 05:19:57;;;;;;;2.45;1.30;;;14.90;99.90;;;;;;5016853;28;20547;-86
2023/08/08 05:22:23;;;;;;;2.47;1.02;;;14.90;99.90;;;;;;5033459;28;20185;-87
2023/08/08 05:24:49;;;;;;;1.23;1.13;;;;;;;;;;5016786;28;20727;-86
2023/08/08 05:27:15;;;;;;;1.67;1.13;;;14.80;99.90;;;;;;5032658;28;20196;-87
2023/08/08 05:29:41;;;;;;;6.60;2.55;;;14.80;99.90;;;;;;5032195;28;20638;-86
2023/08/08 05:32:07;;;;;;;2.53;1.35;;;14.70;99.90;;;;;;5023307;28;20660;-86
2023/08/08 05:34:34;;;;;;;2.58;1.40;;;14.70;99.90;;;;;;5042026;28;20669;-85
2023/08/08 05:36:59;;;;;;;3.08;1.30;;;14.70;99.90;;;;;;5044729;28;20176;-85
2023/08/08 05:39:25;;;;;;;1.45;1.17;;;;;;;;;;5039554;28;20184;-87
2023/08/08 05:41:52;;;;;;;4.03;1.58;;;14.70;99.90;;;;;;5043237;28;20173;-87
2023/08/08 05:44:18;;;;;;;4.35;1.52;;;14.80;99.90;;;;;;5033864;28;20184;-88
2023/08/08 05:46:43;;;;;;;3.17;1.33;;;14.80;99.90;;;;;;5032651;28;20249;-87
2023/08/08 05:49:09;;;;;;;3.38;1.20;;;14.70;99.90;;;;;;5018353;28;20602;-86
2023/08/08 05:51:35;;;;;;;3.30;1.30;;;;;;;;;;5023533;28;20180;-87
2023/08/08 05:54:01;;;;;;;7.15;1.80;;;14.70;99.90;;;;;;5030919;28;20203;-88
2023/08/08 05:56:37;;;;;;;5.40;1.40;;;14.60;99.90;;;;;;5045439;28;20638;-87
2023/08/08 05:59:03;;;;;;;4.78;1.40;;;14.60;99.90;;;;;;5022334;28;20276;-87
2023/08/08 06:01:30;;;;;;;3.03;1.35;;;14.60;99.90;;;;;;5040653;28;20192;-87
2023/08/08 06:03:55;;;;;;;2.35;1.10;;;14.70;99.90;;;;;;5038582;28;20225;-87
2023/08/08 06:06:21;;;;;;;4.50;1.13;;;14.70;99.90;;;;;;5060332;28;21120;-89
2023/08/08 06:08:47;;;;;;;1.50;1.02;;;14.70;99.90;;;;;;5041589;28;20192;-88
2023/08/08 06:11:12;;;;;;;5.28;1.42;;;14.80;99.90;;;;;;5023863;28;20260;-88
2023/08/08 06:13:38;;;;;;;3.97;1.20;;;14.90;99.90;;;;;;5027536;28;20274;-87
2023/08/08 06:16:06;;;;;;;5.30;1.13;;;14.90;99.90;;;;;;5041875;28;20282;-88
2023/08/08 06:18:33;;;;;;;3.38;1.63;;;14.90;99.90;;;;;;5031363;28;20186;-87
2023/08/08 06:20:59;;;;;;;2.13;1.35;;;15.00;99.90;;;;;;5028529;28;20176;-87
2023/08/08 06:23:25;;;;;;;4.07;1.50;;;14.80;99.90;;;;;;5048014;28;20195;-86
2023/08/08 06:25:50;;;;;;;2.90;1.92;;;14.90;99.90;;;;;;5031497;28;20680;-88
2023/08/08 06:28:19;;;;;;;5.10;1.08;;;15.00;99.90;;;;;;5031719;28;20626;-87
2023/08/08 06:30:44;;;;;;;3.13;1.20;;;12.80;99.90;;;;;;5050743;28;20628;-87
2023/08/08 06:33:10;;;;;;;1.25;1.10;;;;;;;;;;5042870;28;20188;-88
2023/08/08 06:35:36;;;;;;;3.90;1.58;;;15.30;99.90;;;;;;5042538;28;20277;-88
2023/08/08 06:38:02;;;;;;;2.40;1.30;;;;;;;;;;5021972;28;20608;-91
2023/08/08 06:40:28;;;;;;;3.00;1.00;;;15.20;99.90;;;;;;5040420;28;20560;-88
2023/08/08 06:42:55;;;;;;;2.20;1.25;;;;;;;;;;5020989;28;20195;-90
2023/08/08 06:45:21;;;;;;;2.08;1.20;;;15.20;99.90;;;;;;5040000;28;20328;-88
2023/08/08 06:47:47;;;;;;;2.17;0.98;;;15.30;99.90;;;;;;5043505;28;20172;-89
2023/08/08 06:50:13;;;;;;;3.38;1.23;;;;;;;;;;5039169;28;20204;-89
2023/08/08 06:52:38;;;;;;;2.20;1.40;;;15.40;99.90;;;;;;5039103;28;20172;-88
2023/08/08 06:55:05;;;;;;;3.17;1.35;;;15.50;99.90;;;;;;5024271;28;20187;-89
2023/08/08 06:57:34;;;;;;;4.05;1.20;;;15.50;99.90;;;;;;5038633;28;20171;-88
2023/08/08 07:00:00;;;;;;;1.95;1.15;;;15.80;99.90;;;;;;5043381;28;20224;-88
2023/08/08 07:02:26;;;;;;;2.50;1.05;;;16.00;99.90;;;;;;5016888;28;20189;-89
2023/08/08 07:04:52;;;;;;;2.05;1.13;;;;;;;;;;5044669;28;20204;-89
2023/08/08 07:07:18;;;;;;;19.55;1.30;;;15.90;99.90;;;;;;5025022;28;20561;-89
2023/08/08 07:09:44;;;;;;;1.52;1.10;;;;;;;;;;5027438;28;20183;-89
2023/08/08 07:12:09;;;;;;;4.35;1.40;;;16.00;99.90;;;;;;5042017;28;20274;-89
2023/08/08 07:14:35;;;;;;;4.43;1.42;;;;;;;;;;5034154;28;20271;-89
2023/08/08 07:17:03;;;;;;;1.42;1.02;;;16.10;99.90;;;;;;5021395;28;20572;-87
2023/08/08 07:19:29;;;;;;;2.90;1.35;;;16.20;99.90;;;;;;5014483;28;20273;-88
2023/08/08 07:21:55;;;;;;;5.75;1.23;;;16.10;99.90;;;;;;5014624;28;20273;-88
2023/08/08 07:24:21;;;;;;;2.60;1.42;;;;;;;;;;5030438;28;20271;-88
2023/08/08 07:26:46;;;;;;;6.28;1.50;;;16.10;99.90;;;;;;5030953;28;20239;-88
2023/08/08 07:29:13;;;;;;;4.63;1.10;;;;;;;;;;5031018;28;20177;-90
2023/08/08 07:31:38;;;;;;;1.75;1.23;;;16.10;99.90;;;;;;5032524;28;20255;-89
2023/08/08 07:34:04;;;;;;;3.97;1.17;;;16.10;99.90;;;;;;5020274;28;20259;-88
2023/08/08 07:36:29;;;;;;;3.65;1.60;;;16.20;99.90;;;;;;5014783;28;20181;-87
2023/08/08 07:38:59;;;;;;;2.20;0.85;;;16.40;99.90;;;;;;5031268;28;20172;-86
2023/08/08 07:41:26;;;;;;;1.42;0.95;;;16.70;99.90;;;;;;4999128;28;20239;-88
2023/08/08 07:43:52;;;;;;;2.42;0.95;;;14.50;99.90;;;;;;5014868;28;20177;-89
2023/08/08 07:46:18;;;;;;;4.80;1.50;;;;;;;;;;5013999;28;20693;-89
2023/08/08 07:48:44;;;;;;;4.93;1.20;;;16.50;99.90;;;;;;5030844;28;20542;-89
2023/08/08 07:51:10;;;;;;;2.08;1.33;;;;;;;;;;5014407;28;20180;-89
2023/08/08 07:53:35;;;;;;;2.70;1.17;;;16.40;99.90;;;;;;5033698;28;20361;-88
2023/08/08 07:56:01;;;;;;;3.28;1.08;;;;;;;;;;5034637;28;20629;-89
2023/08/08 07:58:27;;;;;;;1.75;1.02;;;16.10;99.90;;;;;;5017921;28;20661;-92
2023/08/08 08:00:53;;;;;;;3.95;1.30;;;;;;;;;;5018867;28;20184;-90
2023/08/08 08:03:20;;;;;;;1.90;1.50;;;16.10;99.90;;;;;;5051319;28;20188;-90
2023/08/08 08:05:45;;;;;;;5.95;1.38;;;16.50;99.90;;;;;;5046447;28;20666;-90
2023/08/08 08:08:12;;;;;;;2.50;1.35;;;;;;;;;;5039643;28;20200;-90
2023/08/08 08:10:37;;;;;;;1.83;0.95;;;16.70;99.90;;;;;;5019945;28;20194;-90
2023/08/08 08:13:03;;;;;;;3.00;1.30;;;;;;;;;;5035242;28;20263;-90
2023/08/08 08:15:30;;;;;;;4.80;1.02;;;17.00;99.90;;;;;;5034019;28;20191;-88
2023/08/08 08:17:56;;;;;;;1.27;1.00;;;17.10;99.90;;;;;;5011144;28;20184;-90
2023/08/08 08:20:22;;;;;;;2.25;1.25;;;;;;;;;;5042329;28;20182;-89
2023/08/08 08:22:48;;;;;;;1.70;1.25;;;16.90;99.90;;;;;;5039174;28;20266;-87
2023/08/08 08:25:14;;;;;;;1.40;1.10;;;16.70;99.90;;;;;;5056114;28;20308;-89
2023/08/08 08:27:40;;;;;;;2.78;0.90;;;16.40;99.90;;;;;;5040762;28;20176;-87
2023/08/08 08:30:09;;;;;;;1.27;1.08;;;16.40;99.90;;;;;;5041894;28;20185;-88
2023/08/08 08:32:36;;;;;;;3.00;0.90;;;16.40;99.90;;;;;;5047840;28;20271;-88
2023/08/08 08:35:03;;;;;;;2.70;1.02;;;16.60;99.90;;;;;;5070627;28;20176;-89
2023/08/08 08:37:30;;;;;;;2.60;1.20;;;16.90;99.90;;;;;;5043127;28;20509;-89
2023/08/08 08:39:56;;;;;;;6.85;1.30;;;17.10;99.90;;;;;;5042898;28;20703;-88
2023/08/08 08:42:25;;;;;;;1.20;1.10;;;17.30;99.90;;;;;;5043084;28;20180;-90
2023/08/08 08:44:52;;;;;;;3.22;1.15;;;17.20;99.90;;;;;;5041109;28;20227;-87
2023/08/08 08:47:20;;;;;;;5.68;1.30;;;17.40;99.90;;;;;;5050156;28;20527;-87
2023/08/08 08:49:46;;;;;;;2.40;1.23;;;17.50;99.90;;;;;;5053686;28;20220;-91
2023/08/08 08:52:12;;;;;;;1.35;0.90;;;;;;;;;;5041815;28;20778;-89
2023/08/08 08:54:38;;;;;;;2.22;0.70;;;17.90;99.90;;;;;;5039694;28;20184;-90
2023/08/08 08:57:04;;;;;;;2.65;1.23;;;18.00;99.90;;;;;;5034948;28;20184;-90
2023/08/08 08:59:31;;;;;;;1.58;1.20;;;;;;;;;;5036638;28;20188;-89
2023/08/08 09:01:56;;;;;;;1.88;1.08;;;17.50;99.00;;;;;;5053190;28;20267;-88
2023/08/08 09:04:23;;;;;;;1.00;0.85;;;17.20;99.70;;;;;;5053020;28;20270;-90
2023/08/08 09:06:52;;;;;;;4.25;1.08;;;17.30;99.90;;;;;;5039108;28;20180;-90
2023/08/08 09:09:21;;;;;;;2.92;1.30;;;;;;;;;;5041907;28;20191;-90
2023/08/08 09:11:53;;;;;;;1.75;1.02;;;17.90;95.20;;;;;;5042460;28;20177;-89
2023/08/08 09:14:23;;;;;;;2.22;0.77;;;18.50;96.50;;;;;;5052226;28;20179;-90
2023/08/08 09:16:56;;;;;;;2.38;0.70;;;17.50;93.80;;;;;;5048982;28;20172;-90
2023/08/08 09:19:23;;;;;;;1.42;0.98;;;;;;;;;;5048999;28;20641;-89
2023/08/08 09:21:52;;;;;;;1.48;0.80;;;17.30;94.80;;;;;;5043267;28;20258;-90
2023/08/08 09:24:22;;;;;;;2.42;1.00;;;17.20;95.60;;;;;;5047794;28;20188;-89
2023/08/08 09:26:48;;;;;;;1.42;1.08;;;;;;;;;;5043399;28;20205;-88
2023/08/08 09:29:17;;;;;;;1.92;1.23;;;17.60;95.00;;;;;;5059321;28;20699;-88
2023/08/08 09:31:42;;;;;;;3.10;1.05;;;17.90;95.70;;;;;;5060730;28;20256;-89
2023/08/08 09:34:09;;;;;;;1.15;0.70;;;;;;;;;;5037158;28;20211;-90
2023/08/08 09:36:37;;;;;;;3.47;0.90;;;18.10;90.40;;;;;;5049137;28;20172;-90
2023/08/08 09:39:03;;;;;;;0.82;0.80;;;;;;;;;;5027668;28;20196;-91
2023/08/08 09:41:31;;;;;;;2.30;1.17;;;17.80;89.30;;;;;;5051854;28;20199;-89
2023/08/08 09:43:59;;;;;;;1.45;1.00;;;17.90;86.90;;;;;;5026886;28;20177;-89
2023/08/08 09:46:25;;;;;;;0.73;0.60;;;;;;;;;;5042125;28;20679;-87
2023/08/08 09:48:52;;;;;;;1.05;0.77;;;17.90;89.50;;;;;;5039239;28;20176;-89
2023/08/08 09:51:20;;;;;;;1.80;0.90;;;18.00;87.20;;;;;;5039078;28;20229;-89
2023/08/08 09:53:47;;;;;;;1.48;0.68;;;;;;;;;;5042217;28;20622;-89
2023/08/08 09:56:14;;;;;;;1.48;1.00;;;17.80;86.80;;;;;;5039096;28;20181;-88
2023/08/08 09:58:41;;;;;;;1.63;1.00;;;17.80;89.90;;;;;;5041911;28;20184;-88
2023/08/08 10:01:08;;;;;;;1.45;1.10;;;;;;;;;;5044323;28;20180;-89
2023/08/08 10:03:36;;;;;;;4.45;1.00;;;17.90;90.20;;;;;;5026081;28;20177;-89
2023/08/08 10:06:05;;;;;;;1.13;0.80;;;18.20;90.80;;;;;;5026025;28;20215;-88
2023/08/08 10:08:31;;;;;;;1.45;0.80;;;18.50;91.00;;;;;;5043159;28;20195;-90
2023/08/08 10:10:57;;;;;;;0.50;0.47;;;;;;;;;;5024301;28;20552;-87
2023/08/08 10:13:24;;;;;;;1.35;0.93;;;18.20;80.60;;;;;;5045103;28;20176;-88
2023/08/08 10:15:51;;;;;;;1.85;0.82;;;18.20;80.00;;;;;;5021871;28;20637;-87
2023/08/08 10:18:18;;;;;;;1.55;0.82;;;18.10;79.10;;;;;;5045931;28;20180;-89
2023/08/08 10:20:47;;;;;;;1.20;1.10;;;18.20;80.60;;;;;;5039844;28;20175;-88
2023/08/08 10:23:18;;;;;;;1.45;0.60;;;18.50;81.50;;;;;;5044214;28;20694;-87
2023/08/08 10:25:50;;;;;;;3.03;1.00;;;18.90;79.50;;;;;;5037524;28;20667;-87
2023/08/08 10:28:21;;;;;;;0.60;0.60;;;19.10;80.00;;;;;;5045443;28;20176;-87
2023/08/08 10:30:52;;;;;;;3.42;1.25;;;19.30;74.80;;;;;;5038981;28;20191;-88
2023/08/08 10:33:47;;;;;;;1.90;1.25;;;19.70;72.40;;;;;;5042585;28;20228;-88
2023/08/08 10:36:13;;;;;;;1.50;0.82;;;18.10;73.30;;;;;;5040407;28;20668;-88
2023/08/08 10:38:43;;;;;;;0.77;0.70;;;19.80;70.30;;;;;;5047270;28;20218;-91
2023/08/08 10:41:11;;;;;;;2.22;0.82;;;19.60;69.30;;;;;;5038595;28;20173;-88
2023/08/08 10:43:37;;;;;;;0.80;0.80;;;19.40;69.90;;;;;;5038626;28;20194;-91
2023/08/08 10:46:04;;;;;;;2.00;0.90;;;19.20;69.30;;;;;;5037294;28;20240;-89
2023/08/08 10:48:30;;;;;;;2.80;0.77;;;19.20;70.00;;;;;;5029194;28;20576;-91
2023/08/08 10:51:00;;;;;;;0.90;0.80;;;19.30;69.30;;;;;;5026340;28;20202;-90
2023/08/08 10:53:27;;;;;;;1.23;0.80;;;19.60;68.20;;;;;;5044325;28;20219;-90
2023/08/08 10:56:03;;;;;;;1.10;0.98;;;19.70;69.70;;;;;;5050380;28;20575;-90
2023/08/08 10:58:40;;;;;;;1.63;0.88;;;19.50;67.70;;;;;;4997536;28;20207;-88
2023/08/08 11:01:10;;;;;;;1.80;0.80;;;;;;;;;;5011690;28;20231;-90
2023/08/08 11:03:37;;;;;;;4.60;0.60;;;19.30;67.20;;;;;;5011552;28;20230;-89
2023/08/08 11:06:04;;;;;;;2.97;0.98;;;19.60;68.80;;;;;;4995097;28;20209;-91
2023/08/08 11:08:31;;;;;;;1.52;0.85;;;19.80;69.10;;;;;;4995361;28;20288;-92
2023/08/08 11:10:59;;;;;;;3.05;0.90;;;20.10;64.60;;;;;;5012902;28;20173;-91
2023/08/08 11:13:26;;;;;;;2.15;0.80;;;;;;;;;;5011761;28;20208;-90
2023/08/08 11:15:54;;;;;;;4.80;0.70;;;19.90;64.80;;;;;;5011526;28;20239;-92
2023/08/08 11:18:21;;;;;;;1.45;0.70;;;19.80;68.50;;;;;;4995604;28;20185;-90
2023/08/08 11:20:47;;;;;;;0.47;0.45;;;19.90;68.70;;;;;;5011341;28;20208;-90
2023/08/08 11:23:13;;;;;;;1.65;0.90;;;19.90;67.80;;;;;;4995430;28;20631;-90
2023/08/08 11:25:44;;;;;;;2.47;1.00;;;20.10;63.00;;;;;;4995130;28;20224;-89
2023/08/08 11:28:11;;;;;;;1.83;0.90;;;20.00;63.80;;;;;;4997722;28;20599;-90
2023/08/08 11:30:44;;;;;;;1.17;0.68;;;19.50;64.00;;;;;;5029842;28;20172;-91
2023/08/08 11:33:13;;;;;;;2.85;1.17;;;19.40;64.80;;;;;;5042697;28;20248;-90
2023/08/08 11:35:45;;;;;;;1.40;0.57;;;19.90;68.00;;;;;;5038527;28;20217;-92
2023/08/08 11:38:12;;;;;;;0.70;0.65;;;19.90;67.20;;;;;;5055323;28;20176;-91
2023/08/08 11:40:38;;;;;;;0.77;0.50;;;;;;;;;;5054544;28;20184;-90
2023/08/08 11:43:07;;;;;;;1.63;1.10;;;19.90;66.60;;;;;;5055029;28;20176;-91
2023/08/08 11:45:33;;;;;;;0.52;0.50;;;;;;;;;;5071551;28;20330;-90
2023/08/08 11:47:59;;;;;;;0.77;0.77;;;19.70;64.50;;;;;;5055392;28;20225;-93
2023/08/08 11:50:28;;;;;;;1.95;0.90;;;19.30;65.10;;;;;;5055377;28;20270;-92
2023/08/08 11:52:55;;;;;;;1.33;1.00;;;19.30;70.30;;;;;;5055274;28;20180;-91
2023/08/08 11:55:26;;;;;;;2.05;0.73;;;19.40;67.50;;;;;;5055298;28;20221;-90
2023/08/08 11:57:59;;;;;;;2.30;1.10;;;19.50;66.10;;;;;;5055146;28;20688;-90
2023/08/08 12:03:46;;;;;;;3.47;0.93;;;19.60;65.30;;;;;;5057668;28;20160;-93
2023/08/08 12:06:16;;;;;;;1.20;0.60;;;19.90;64.40;;;;;;5077032;28;20212;-92
2023/08/08 12:08:45;;;;;;;0.80;0.80;;;20.20;63.30;;;;;;5058652;28;20275;-92
2023/08/08 12:11:12;;;;;;;0.82;0.57;;;20.30;62.20;;;;;;5038957;28;20306;-92
2023/08/08 12:13:40;;;;;;;2.75;0.90;;;20.50;59.80;;;;;;5058854;28;20782;-90
2023/08/08 12:16:08;;;;;;;2.35;1.30;;;20.50;62.50;;;;;;5054887;28;20194;-93
2023/08/08 12:18:35;;;;;;;1.23;0.60;;;20.80;58.30;;;;;;5057315;28;20172;-90
2023/08/08 12:21:01;;;;;;;0.57;0.57;;;20.90;59.40;;;;;;5059659;28;20187;-90
2023/08/08 12:23:27;;;;;;;1.40;0.65;;;;;;;;;;5076285;28;20179;-92
2023/08/08 12:25:56;;;;;;;1.50;0.95;;;20.80;55.70;;;;;;5074070;28;20220;-92
2023/08/08 12:28:22;;;;;;;1.90;0.88;;;;;;;;;;5054690;28;20179;-90
2023/08/08 12:30:48;;;;;;;1.17;0.80;;;;;;;;;;5054869;28;20187;-92
2023/08/08 12:33:14;;;;;;;1.48;1.05;;;21.30;55.40;;;;;;5053949;28;20176;-93
2023/08/08 12:35:40;;;;;;;1.08;0.85;;;;;;;;;;5037905;28;20187;-91
2023/08/08 12:38:06;;;;;;;1.58;0.90;;;21.30;55.90;;;;;;5053470;28;20171;-90
2023/08/08 12:40:31;;;;;;;1.65;0.68;;;21.30;61.90;;;;;;5053694;28;20632;-91
2023/08/08 12:42:57;;;;;;;1.35;0.75;;;21.40;56.60;;;;;;5053321;28;20636;-87
2023/08/08 12:45:25;;;;;;;0.88;0.70;;;20.90;57.10;;;;;;5036015;28;20244;-87
2023/08/08 12:47:51;;;;;;;1.88;1.05;;;;;;;;;;5053288;28;20259;-89
2023/08/08 12:50:17;;;;;;;1.70;0.65;;;;;;;;;;5053166;28;20660;-89
2023/08/08 12:52:43;;;;;;;1.00;0.75;;;20.70;56.20;;;;;;5036664;28;20180;-87
2023/08/08 12:55:11;;;;;;;1.77;0.80;;;20.70;57.50;;;;;;5053119;28;20180;-89
2023/08/08 12:57:37;;;;;;;1.60;0.90;;;;;;;;;;5053654;28;20180;-88
2023/08/08 13:00:04;;;;;;;1.95;1.13;;;20.70;56.20;;;;;;5052546;28;20207;-86
2023/08/08 13:02:30;;;;;;;1.90;0.82;;;20.80;55.40;;;;;;5053139;28;20176;-90
2023/08/08 13:04:56;;;;;;;0.77;0.65;;;;;;;;;;5053190;28;20254;-91